sensor_id;sensor_type;location;lat;lon;timestamp;temperature;humidity
3330;DHT22;1677;49.576;10.990;2023-05-10T00:02:24;16.30;99.90
3330;DHT22;1677;49.576;10.990;2023-05-10T00:04:50;16.30;99.90
3330;DHT22;1677;49.576;10.990;2023-05-10T00:07:15;16.20;99.90
3330;DHT22;1677;49.576;10.990;2023-05-10T00:09:43;16.20;99.90
3330;DHT22;1677;49.576;10.990;2023-05-10T00:12:08;16.10;99.90
3330;DHT22;1677;49.576;10.990;2023-05-10T00:14:34;16.10;99.90
3330;DHT22;1677;49.576;10.990;2023-05-10T00:17:00;16.00;99.90
3330;DHT22;1677;49.576;10.990;2023-05-10T00:19:26;16.00;99.90
3330;DHT22;1677;49.576;10.990;2023-05-10T00:21:51;16.00;99.90
3330;DHT22;1677;49.576;10.990;2023-05-10T00:24:17;16.00;99.90
3330;DHT22;1677;49.576;10.990;2023-05-10T00:26:42;16.00;99.90
3330;DHT22;1677;49.576;10.990;2023-05-10T00:29:08;16.00;99.90
3330;DHT22;1677;49.576;10.990;2023-05-10T00:31:34;15.90;99.90
3330;DHT22;1677;49.576;10.990;2023-05-10T00:33:59;15.80;99.90
3330;DHT22;1677;49.576;10.990;2023-05-10T00:36:25;15.80;99.90
3330;DHT22;1677;49.576;10.990;2023-05-10T00:38:51;15.70;99.90
3330;DHT22;1677;49.576;10.990;2023-05-10T00:41:16;15.60;99.90
3330;DHT22;1677;49.576;10.990;2023-05-10T00:43:42;15.50;99.90
3330;DHT22;1677;49.576;10.990;2023-05-10T00:46:08;15.50;99.90
3330;DHT22;1677;49.576;10.990;2023-05-10T00:48:34;15.50;99.90
3330;DHT22;1677;49.576;10.990;2023-05-10T00:51:01;15.40;99.90
3330;DHT22;1677;49.576;10.990;2023-05-10T00:53:27;15.50;99.90
3330;DHT22;1677;49.576;10.990;2023-05-10T00:55:52;15.40;99.90
3330;DHT22;1677;49.576;10.990;2023-05-10T00:58:18;15.40;99.90
3330;DHT22;1677;49.576;10.990;2023-05-10T01:00:45;15.50;99.90
3330;DHT22;1677;49.576;10.990;2023-05-10T01:03:11;15.30;99.90
3330;DHT22;1677;49.576;10.990;2023-05-10T01:05:37;15.30;99.90
3330;DHT22;1677;49.576;10.990;2023-05-10T01:08:03;15.30;99.90
3330;DHT22;1677;49.576;10.990;2023-05-10T01:10:30;15.70;99.90
3330;DHT22;1677;49.576;10.990;2023-05-10T01:12:55;15.80;99.90
3330;DHT22;1677;49.576;10.990;2023-05-10T01:15:22;15.70;99.90
3330;DHT22;1677;49.576;10.990;2023-05-10T01:17:49;15.80;99.90
3330;DHT22;1677;49.576;10.990;2023-05-10T01:20:15;15.90;99.90
3330;DHT22;1677;49.576;10.990;2023-05-10T01:34:16;15.70;99.90
3330;DHT22;1677;49.576;10.990;2023-05-10T01:36:58;15.60;99.90
3330;DHT22;1677;49.576;10.990;2023-05-10T01:39:49;15.60;99.90
3330;DHT22;1677;49.576;10.990;2023-05-10T01:42:21;15.60;99.90
3330;DHT22;1677;49.576;10.990;2023-05-10T01:47:48;15.40;99.90
3330;DHT22;1677;49.576;10.990;2023-05-10T01:50:19;15.40;99.90
3330;DHT22;1677;49.576;10.990;2023-05-10T01:52:53;15.30;99.90
3330;DHT22;1677;49.576;10.990;2023-05-10T01:55:21;15.40;99.90
3330;DHT22;1677;49.576;10.990;2023-05-10T01:57:52;15.40;99.90
3330;DHT22;1677;49.576;10.990;2023-05-10T02:00:20;15.40;99.90
3330;DHT22;1677;49.576;10.990;2023-05-10T02:02:48;15.30;99.90
3330;DHT22;1677;49.576;10.990;2023-05-10T02:05:15;15.40;99.90
3330;DHT22;1677;49.576;10.990;2023-05-10T02:07:42;15.40;99.90
3330;DHT22;1677;49.576;10.990;2023-05-10T02:10:09;15.30;99.90
3330;DHT22;1677;49.576;10.990;2023-05-10T02:12:37;15.30;99.90
3330;DHT22;1677;49.576;10.990;2023-05-10T02:15:05;15.60;99.90
3330;DHT22;1677;49.576;10.990;2023-05-10T02:17:32;15.60;99.90
3330;DHT22;1677;49.576;10.990;2023-05-10T02:20:01;15.60;99.90
3330;DHT22;1677;49.576;10.990;2023-05-10T02:22:28;15.70;99.90
3330;DHT22;1677;49.576;10.990;2023-05-10T02:24:58;15.60;99.90
3330;DHT22;1677;49.576;10.990;2023-05-10T02:27:25;15.70;99.90
3330;DHT22;1677;49.576;10.990;2023-05-10T02:29:53;15.50;99.90
3330;DHT22;1677;49.576;10.990;2023-05-10T02:32:20;15.40;99.90
3330;DHT22;1677;49.576;10.990;2023-05-10T02:34:46;15.20;99.90
3330;DHT22;1677;49.576;10.990;2023-05-10T02:37:19;15.10;99.90
3330;DHT22;1677;49.576;10.990;2023-05-10T02:39:50;15.20;99.90
3330;DHT22;1677;49.576;10.990;2023-05-10T02:42:17;15.20;99.90
3330;DHT22;1677;49.576;10.990;2023-05-10T02:44:48;15.20;99.90
3330;DHT22;1677;49.576;10.990;2023-05-10T02:47:14;15.30;99.90
3330;DHT22;1677;49.576;10.990;2023-05-10T02:49:40;15.30;99.90
3330;DHT22;1677;49.576;10.990;2023-05-10T02:52:06;15.40;99.90
3330;DHT22;1677;49.576;10.990;2023-05-10T02:54:39;15.40;99.90
3330;DHT22;1677;49.576;10.990;2023-05-10T02:57:07;15.40;99.90
3330;DHT22;1677;49.576;10.990;2023-05-10T02:59:35;15.40;99.90
3330;DHT22;1677;49.576;10.990;2023-05-10T03:02:01;15.40;99.90
3330;DHT22;1677;49.576;10.990;2023-05-10T03:04:27;15.30;99.90
3330;DHT22;1677;49.576;10.990;2023-05-10T03:06:53;15.20;99.90
3330;DHT22;1677;49.576;10.990;2023-05-10T03:09:19;15.20;99.90
3330;DHT22;1677;49.576;10.990;2023-05-10T03:14:39;15.10;99.90
3330;DHT22;1677;49.576;10.990;2023-05-10T03:17:19;15.10;99.90
3330;DHT22;1677;49.576;10.990;2023-05-10T03:19:58;15.10;99.90
3330;DHT22;1677;49.576;10.990;2023-05-10T03:22:48;15.00;99.90
3330;DHT22;1677;49.576;10.990;2023-05-10T03:25:15;15.00;99.90
3330;DHT22;1677;49.576;10.990;2023-05-10T03:27:43;14.90;99.90
3330;DHT22;1677;49.576;10.990;2023-05-10T03:30:10;14.90;99.90
3330;DHT22;1677;49.576;10.990;2023-05-10T03:32:37;14.90;99.90
3330;DHT22;1677;49.576;10.990;2023-05-10T03:35:12;15.00;99.90
3330;DHT22;1677;49.576;10.990;2023-05-10T03:37:40;14.90;99.90
3330;DHT22;1677;49.576;10.990;2023-05-10T03:40:07;14.90;99.90
3330;DHT22;1677;49.576;10.990;2023-05-10T03:42:32;14.90;99.90
3330;DHT22;1677;49.576;10.990;2023-05-10T03:44:58;14.90;99.90
3330;DHT22;1677;49.576;10.990;2023-05-10T03:47:23;14.90;99.90
3330;DHT22;1677;49.576;10.990;2023-05-10T03:49:49;14.90;99.90
3330;DHT22;1677;49.576;10.990;2023-05-10T03:52:15;14.90;99.90
3330;DHT22;1677;49.576;10.990;2023-05-10T03:54:40;15.00;99.90
3330;DHT22;1677;49.576;10.990;2023-05-10T03:57:06;14.90;99.90
3330;DHT22;1677;49.576;10.990;2023-05-10T03:59:32;15.00;99.90
3330;DHT22;1677;49.576;10.990;2023-05-10T04:01:57;14.90;99.90
3330;DHT22;1677;49.576;10.990;2023-05-10T04:04:23;14.90;99.90
3330;DHT22;1677;49.576;10.990;2023-05-10T04:06:49;14.90;99.90
3330;DHT22;1677;49.576;10.990;2023-05-10T04:09:15;15.00;99.90
3330;DHT22;1677;49.576;10.990;2023-05-10T04:11:41;15.20;99.90
3330;DHT22;1677;49.576;10.990;2023-05-10T04:14:07;15.20;99.90
3330;DHT22;1677;49.576;10.990;2023-05-10T04:16:33;15.10;99.90
3330;DHT22;1677;49.576;10.990;2023-05-10T04:18:58;15.10;99.90
3330;DHT22;1677;49.576;10.990;2023-05-10T04:21:25;15.20;99.90
3330;DHT22;1677;49.576;10.990;2023-05-10T04:23:50;15.00;99.90
3330;DHT22;1677;49.576;10.990;2023-05-10T04:26:16;15.10;99.90
3330;DHT22;1677;49.576;10.990;2023-05-10T04:28:41;15.00;99.90
3330;DHT22;1677;49.576;10.990;2023-05-10T04:31:08;14.90;99.90
3330;DHT22;1677;49.576;10.990;2023-05-10T04:33:35;14.90;99.90
3330;DHT22;1677;49.576;10.990;2023-05-10T04:36:01;15.00;99.90
3330;DHT22;1677;49.576;10.990;2023-05-10T04:38:27;15.00;99.90
3330;DHT22;1677;49.576;10.990;2023-05-10T04:40:53;14.90;99.90
3330;DHT22;1677;49.576;10.990;2023-05-10T04:43:19;14.90;99.90
3330;DHT22;1677;49.576;10.990;2023-05-10T04:45:45;14.90;99.90
3330;DHT22;1677;49.576;10.990;2023-05-10T04:48:11;14.90;99.90
3330;DHT22;1677;49.576;10.990;2023-05-10T04:50:36;14.90;99.90
3330;DHT22;1677;49.576;10.990;2023-05-10T04:53:02;15.10;99.90
3330;DHT22;1677;49.576;10.990;2023-05-10T04:55:28;15.10;99.90
3330;DHT22;1677;49.576;10.990;2023-05-10T04:57:53;15.00;99.90
3330;DHT22;1677;49.576;10.990;2023-05-10T05:00:22;15.10;99.90
3330;DHT22;1677;49.576;10.990;2023-05-10T05:02:47;15.10;99.90
3330;DHT22;1677;49.576;10.990;2023-05-10T05:05:13;15.00;99.90
3330;DHT22;1677;49.576;10.990;2023-05-10T05:07:39;15.00;99.90
3330;DHT22;1677;49.576;10.990;2023-05-10T05:10:06;15.00;99.90
3330;DHT22;1677;49.576;10.990;2023-05-10T05:12:32;15.00;99.90
3330;DHT22;1677;49.576;10.990;2023-05-10T05:14:57;14.90;99.90
3330;DHT22;1677;49.576;10.990;2023-05-10T05:17:23;15.00;99.90
3330;DHT22;1677;49.576;10.990;2023-05-10T05:19:48;15.00;99.90
3330;DHT22;1677;49.576;10.990;2023-05-10T05:22:14;15.00;99.90
3330;DHT22;1677;49.576;10.990;2023-05-10T05:24:40;15.00;99.90
3330;DHT22;1677;49.576;10.990;2023-05-10T05:27:05;15.00;99.90
3330;DHT22;1677;49.576;10.990;2023-05-10T05:29:31;15.10;99.90
3330;DHT22;1677;49.576;10.990;2023-05-10T05:31:57;15.20;99.90
3330;DHT22;1677;49.576;10.990;2023-05-10T05:34:23;15.20;99.90
3330;DHT22;1677;49.576;10.990;2023-05-10T05:36:49;15.30;99.90
3330;DHT22;1677;49.576;10.990;2023-05-10T05:39:15;15.50;99.90
3330;DHT22;1677;49.576;10.990;2023-05-10T05:41:40;15.60;99.90
3330;DHT22;1677;49.576;10.990;2023-05-10T05:44:06;15.70;99.90
3330;DHT22;1677;49.576;10.990;2023-05-10T05:46:31;15.70;99.90
3330;DHT22;1677;49.576;10.990;2023-05-10T05:48:57;15.70;99.90
3330;DHT22;1677;49.576;10.990;2023-05-10T05:51:22;15.80;99.90
3330;DHT22;1677;49.576;10.990;2023-05-10T05:53:48;15.70;99.90
3330;DHT22;1677;49.576;10.990;2023-05-10T05:56:13;15.70;99.90
3330;DHT22;1677;49.576;10.990;2023-05-10T05:58:39;15.70;99.90
3330;DHT22;1677;49.576;10.990;2023-05-10T06:01:05;15.80;99.90
3330;DHT22;1677;49.576;10.990;2023-05-10T06:03:30;15.80;99.90
3330;DHT22;1677;49.576;10.990;2023-05-10T06:05:56;15.90;99.90
3330;DHT22;1677;49.576;10.990;2023-05-10T06:08:21;15.80;99.90
3330;DHT22;1677;49.576;10.990;2023-05-10T06:10:47;15.80;99.90
3330;DHT22;1677;49.576;10.990;2023-05-10T06:13:13;15.80;99.90
3330;DHT22;1677;49.576;10.990;2023-05-10T06:15:39;15.80;99.90
3330;DHT22;1677;49.576;10.990;2023-05-10T06:18:05;15.90;99.90
3330;DHT22;1677;49.576;10.990;2023-05-10T06:20:31;15.90;99.90
3330;DHT22;1677;49.576;10.990;2023-05-10T06:22:57;15.80;99.90
3330;DHT22;1677;49.576;10.990;2023-05-10T06:25:23;15.90;99.90
3330;DHT22;1677;49.576;10.990;2023-05-10T06:27:49;15.90;99.90
3330;DHT22;1677;49.576;10.990;2023-05-10T06:30:15;15.90;99.90
3330;DHT22;1677;49.576;10.990;2023-05-10T06:32:40;16.00;99.90
3330;DHT22;1677;49.576;10.990;2023-05-10T06:35:06;15.90;99.90
3330;DHT22;1677;49.576;10.990;2023-05-10T06:37:33;16.00;99.90
3330;DHT22;1677;49.576;10.990;2023-05-10T06:39:58;16.10;99.90
3330;DHT22;1677;49.576;10.990;2023-05-10T06:42:24;16.30;99.90
3330;DHT22;1677;49.576;10.990;2023-05-10T06:44:50;16.40;99.90
3330;DHT22;1677;49.576;10.990;2023-05-10T06:47:16;16.40;99.90
3330;DHT22;1677;49.576;10.990;2023-05-10T06:49:42;16.60;99.90
3330;DHT22;1677;49.576;10.990;2023-05-10T06:52:08;16.80;99.90
3330;DHT22;1677;49.576;10.990;2023-05-10T06:54:33;17.00;99.90
3330;DHT22;1677;49.576;10.990;2023-05-10T06:56:59;17.10;99.90
3330;DHT22;1677;49.576;10.990;2023-05-10T06:59:24;17.20;99.90
3330;DHT22;1677;49.576;10.990;2023-05-10T07:01:50;17.50;99.90
3330;DHT22;1677;49.576;10.990;2023-05-10T07:04:16;17.40;99.90
3330;DHT22;1677;49.576;10.990;2023-05-10T07:06:42;17.60;99.90
3330;DHT22;1677;49.576;10.990;2023-05-10T07:09:08;17.80;99.90
3330;DHT22;1677;49.576;10.990;2023-05-10T07:11:34;17.90;99.90
3330;DHT22;1677;49.576;10.990;2023-05-10T07:14:00;17.80;99.90
3330;DHT22;1677;49.576;10.990;2023-05-10T07:16:25;17.90;99.90
3330;DHT22;1677;49.576;10.990;2023-05-10T07:18:51;18.10;99.90
3330;DHT22;1677;49.576;10.990;2023-05-10T07:21:18;18.20;99.90
3330;DHT22;1677;49.576;10.990;2023-05-10T07:23:43;18.30;99.90
3330;DHT22;1677;49.576;10.990;2023-05-10T07:26:09;18.30;99.90
3330;DHT22;1677;49.576;10.990;2023-05-10T07:28:35;18.40;99.90
3330;DHT22;1677;49.576;10.990;2023-05-10T07:31:02;18.50;99.90
3330;DHT22;1677;49.576;10.990;2023-05-10T07:33:28;18.40;99.90
3330;DHT22;1677;49.576;10.990;2023-05-10T07:35:53;18.50;99.90
3330;DHT22;1677;49.576;10.990;2023-05-10T07:38:19;18.40;99.90
3330;DHT22;1677;49.576;10.990;2023-05-10T07:40:45;18.40;99.90
3330;DHT22;1677;49.576;10.990;2023-05-10T07:43:10;18.30;99.90
3330;DHT22;1677;49.576;10.990;2023-05-10T07:45:36;18.20;99.90
3330;DHT22;1677;49.576;10.990;2023-05-10T07:48:01;18.00;99.90
3330;DHT22;1677;49.576;10.990;2023-05-10T07:50:27;17.90;99.90
3330;DHT22;1677;49.576;10.990;2023-05-10T07:52:53;17.70;99.90
3330;DHT22;1677;49.576;10.990;2023-05-10T07:55:18;17.70;99.90
3330;DHT22;1677;49.576;10.990;2023-05-10T07:57:45;17.60;99.90
3330;DHT22;1677;49.576;10.990;2023-05-10T08:00:12;17.70;99.90
3330;DHT22;1677;49.576;10.990;2023-05-10T08:02:38;17.80;99.90
3330;DHT22;1677;49.576;10.990;2023-05-10T08:05:04;17.70;99.90
3330;DHT22;1677;49.576;10.990;2023-05-10T08:07:30;17.60;99.90
3330;DHT22;1677;49.576;10.990;2023-05-10T08:09:56;17.60;99.90
3330;DHT22;1677;49.576;10.990;2023-05-10T08:12:22;17.30;99.90
3330;DHT22;1677;49.576;10.990;2023-05-10T08:14:47;17.30;99.90
3330;DHT22;1677;49.576;10.990;2023-05-10T08:17:13;17.20;99.90
3330;DHT22;1677;49.576;10.990;2023-05-10T08:19:38;17.20;99.90
3330;DHT22;1677;49.576;10.990;2023-05-10T08:22:04;17.50;99.90
3330;DHT22;1677;49.576;10.990;2023-05-10T08:24:29;17.90;99.90
3330;DHT22;1677;49.576;10.990;2023-05-10T08:26:55;18.50;99.90
3330;DHT22;1677;49.576;10.990;2023-05-10T08:29:21;18.90;99.90
3330;DHT22;1677;49.576;10.990;2023-05-10T08:31:46;19.10;99.90
3330;DHT22;1677;49.576;10.990;2023-05-10T08:34:12;19.20;99.90
3330;DHT22;1677;49.576;10.990;2023-05-10T08:36:37;19.20;99.90
3330;DHT22;1677;49.576;10.990;2023-05-10T08:39:03;19.10;99.90
3330;DHT22;1677;49.576;10.990;2023-05-10T08:41:30;19.00;99.90
3330;DHT22;1677;49.576;10.990;2023-05-10T08:43:58;18.70;99.90
3330;DHT22;1677;49.576;10.990;2023-05-10T08:46:26;18.50;99.90
3330;DHT22;1677;49.576;10.990;2023-05-10T08:48:53;18.50;99.90
3330;DHT22;1677;49.576;10.990;2023-05-10T08:51:22;18.60;99.90
3330;DHT22;1677;49.576;10.990;2023-05-10T08:53:49;18.70;99.90
3330;DHT22;1677;49.576;10.990;2023-05-10T08:56:15;18.50;99.90
3330;DHT22;1677;49.576;10.990;2023-05-10T08:58:41;18.20;99.90
3330;DHT22;1677;49.576;10.990;2023-05-10T09:01:08;18.10;99.90
3330;DHT22;1677;49.576;10.990;2023-05-10T09:03:35;17.90;99.90
3330;DHT22;1677;49.576;10.990;2023-05-10T09:06:03;18.00;99.90
3330;DHT22;1677;49.576;10.990;2023-05-10T09:08:30;18.10;99.90
3330;DHT22;1677;49.576;10.990;2023-05-10T09:10:56;18.50;99.90
3330;DHT22;1677;49.576;10.990;2023-05-10T09:13:23;19.20;99.90
3330;DHT22;1677;49.576;10.990;2023-05-10T09:15:49;20.20;99.90
3330;DHT22;1677;49.576;10.990;2023-05-10T09:18:15;21.30;99.90
3330;DHT22;1677;49.576;10.990;2023-05-10T09:20:40;22.20;99.90
3330;DHT22;1677;49.576;10.990;2023-05-10T09:23:06;22.40;99.90
3330;DHT22;1677;49.576;10.990;2023-05-10T09:25:32;22.70;99.90
3330;DHT22;1677;49.576;10.990;2023-05-10T09:28:01;22.90;99.90
3330;DHT22;1677;49.576;10.990;2023-05-10T09:30:31;22.80;99.90
3330;DHT22;1677;49.576;10.990;2023-05-10T09:32:58;22.50;99.90
3330;DHT22;1677;49.576;10.990;2023-05-10T09:35:25;22.30;99.90
3330;DHT22;1677;49.576;10.990;2023-05-10T09:37:53;22.10;99.90
3330;DHT22;1677;49.576;10.990;2023-05-10T09:40:21;22.20;99.90
3330;DHT22;1677;49.576;10.990;2023-05-10T09:42:55;22.80;99.90
3330;DHT22;1677;49.576;10.990;2023-05-10T09:45:22;23.60;99.90
3330;DHT22;1677;49.576;10.990;2023-05-10T09:47:47;23.70;99.10
3330;DHT22;1677;49.576;10.990;2023-05-10T09:50:13;23.70;98.90
3330;DHT22;1677;49.576;10.990;2023-05-10T09:52:56;24.00;98.40
3330;DHT22;1677;49.576;10.990;2023-05-10T09:58:04;24.30;96.90
3330;DHT22;1677;49.576;10.990;2023-05-10T10:00:36;23.60;96.80
3330;DHT22;1677;49.576;10.990;2023-05-10T10:03:02;23.70;97.50
3330;DHT22;1677;49.576;10.990;2023-05-10T10:05:33;24.00;97.70
3330;DHT22;1677;49.576;10.990;2023-05-10T10:08:00;24.90;95.40
3330;DHT22;1677;49.576;10.990;2023-05-10T10:10:27;24.10;95.30
3330;DHT22;1677;49.576;10.990;2023-05-10T10:12:54;23.80;95.50
3330;DHT22;1677;49.576;10.990;2023-05-10T10:15:23;24.10;95.60
3330;DHT22;1677;49.576;10.990;2023-05-10T10:17:50;23.90;95.30
3330;DHT22;1677;49.576;10.990;2023-05-10T10:20:17;24.50;94.00
3330;DHT22;1677;49.576;10.990;2023-05-10T10:22:43;24.90;92.50
3330;DHT22;1677;49.576;10.990;2023-05-10T10:25:17;25.80;93.00
3330;DHT22;1677;49.576;10.990;2023-05-10T10:30:39;25.80;88.30
3330;DHT22;1677;49.576;10.990;2023-05-10T10:36:02;24.40;92.00
3330;DHT22;1677;49.576;10.990;2023-05-10T10:38:58;24.30;91.60
3330;DHT22;1677;49.576;10.990;2023-05-10T10:44:25;23.00;92.10
3330;DHT22;1677;49.576;10.990;2023-05-10T10:49:26;22.30;94.80
3330;DHT22;1677;49.576;10.990;2023-05-10T10:52:31;21.90;94.40
3330;DHT22;1677;49.576;10.990;2023-05-10T10:55:17;21.60;95.00
3330;DHT22;1677;49.576;10.990;2023-05-10T10:57:48;21.10;96.40
3330;DHT22;1677;49.576;10.990;2023-05-10T11:00:36;20.90;98.00
3330;DHT22;1677;49.576;10.990;2023-05-10T11:03:10;20.60;98.50
3330;DHT22;1677;49.576;10.990;2023-05-10T11:05:46;20.20;99.00
3330;DHT22;1677;49.576;10.990;2023-05-10T11:08:31;20.20;99.80
3330;DHT22;1677;49.576;10.990;2023-05-10T11:13:30;19.60;99.90
3330;DHT22;1677;49.576;10.990;2023-05-10T11:15:57;19.60;99.90
3330;DHT22;1677;49.576;10.990;2023-05-10T11:18:28;19.50;99.90
3330;DHT22;1677;49.576;10.990;2023-05-10T11:21:02;19.50;99.90
3330;DHT22;1677;49.576;10.990;2023-05-10T11:23:51;19.50;99.90
3330;DHT22;1677;49.576;10.990;2023-05-10T11:26:18;19.50;99.90
3330;DHT22;1677;49.576;10.990;2023-05-10T11:28:48;19.50;99.90
3330;DHT22;1677;49.576;10.990;2023-05-10T11:31:18;19.60;99.90
3330;DHT22;1677;49.576;10.990;2023-05-10T11:36:21;19.70;99.90
3330;DHT22;1677;49.576;10.990;2023-05-10T11:38:47;19.80;99.90
3330;DHT22;1677;49.576;10.990;2023-05-10T11:41:15;19.70;99.90
3330;DHT22;1677;49.576;10.990;2023-05-10T11:43:41;19.80;99.90
3330;DHT22;1677;49.576;10.990;2023-05-10T11:46:09;19.80;99.90
3330;DHT22;1677;49.576;10.990;2023-05-10T11:48:36;19.80;99.90
3330;DHT22;1677;49.576;10.990;2023-05-10T11:51:01;19.90;99.90
3330;DHT22;1677;49.576;10.990;2023-05-10T11:53:29;19.90;99.90
3330;DHT22;1677;49.576;10.990;2023-05-10T11:55:55;20.00;99.90
3330;DHT22;1677;49.576;10.990;2023-05-10T11:58:20;20.10;99.90
3330;DHT22;1677;49.576;10.990;2023-05-10T12:00:48;20.30;99.90
3330;DHT22;1677;49.576;10.990;2023-05-10T12:03:14;20.40;99.90
3330;DHT22;1677;49.576;10.990;2023-05-10T12:05:40;20.60;99.90
3330;DHT22;1677;49.576;10.990;2023-05-10T12:08:21;20.70;99.90
3330;DHT22;1677;49.576;10.990;2023-05-10T12:10:47;20.90;99.60
3330;DHT22;1677;49.576;10.990;2023-05-10T12:13:13;20.80;99.90
3330;DHT22;1677;49.576;10.990;2023-05-10T12:15:39;20.80;99.90
3330;DHT22;1677;49.576;10.990;2023-05-10T12:18:05;20.70;99.90
3330;DHT22;1677;49.576;10.990;2023-05-10T12:20:33;20.70;99.90
3330;DHT22;1677;49.576;10.990;2023-05-10T12:22:59;20.60;99.90
3330;DHT22;1677;49.576;10.990;2023-05-10T12:25:31;20.50;99.90
3330;DHT22;1677;49.576;10.990;2023-05-10T12:27:58;20.70;99.90
3330;DHT22;1677;49.576;10.990;2023-05-10T12:30:27;20.80;99.90
3330;DHT22;1677;49.576;10.990;2023-05-10T12:32:54;20.90;99.90
3330;DHT22;1677;49.576;10.990;2023-05-10T12:35:24;21.30;99.90
3330;DHT22;1677;49.576;10.990;2023-05-10T12:37:53;21.40;99.80
3330;DHT22;1677;49.576;10.990;2023-05-10T12:40:18;21.30;99.90
3330;DHT22;1677;49.576;10.990;2023-05-10T12:42:44;21.10;99.70
3330;DHT22;1677;49.576;10.990;2023-05-10T12:45:11;20.80;99.90
3330;DHT22;1677;49.576;10.990;2023-05-10T12:47:37;20.60;99.90
3330;DHT22;1677;49.576;10.990;2023-05-10T12:50:03;20.40;99.90
3330;DHT22;1677;49.576;10.990;2023-05-10T12:52:29;20.20;99.90
3330;DHT22;1677;49.576;10.990;2023-05-10T12:54:54;20.20;99.90
3330;DHT22;1677;49.576;10.990;2023-05-10T12:57:20;20.00;99.90
3330;DHT22;1677;49.576;10.990;2023-05-10T12:59:46;19.90;99.90
3330;DHT22;1677;49.576;10.990;2023-05-10T13:02:12;19.90;99.90
3330;DHT22;1677;49.576;10.990;2023-05-10T13:04:38;19.90;99.90
3330;DHT22;1677;49.576;10.990;2023-05-10T13:07:06;19.90;99.90
3330;DHT22;1677;49.576;10.990;2023-05-10T13:09:32;19.80;99.90
3330;DHT22;1677;49.576;10.990;2023-05-10T13:11:57;19.80;99.90
3330;DHT22;1677;49.576;10.990;2023-05-10T13:14:23;19.60;99.90
3330;DHT22;1677;49.576;10.990;2023-05-10T13:16:48;19.60;99.90
3330;DHT22;1677;49.576;10.990;2023-05-10T13:19:15;19.60;99.90
3330;DHT22;1677;49.576;10.990;2023-05-10T13:21:41;19.60;99.90
3330;DHT22;1677;49.576;10.990;2023-05-10T13:24:07;19.60;99.90
3330;DHT22;1677;49.576;10.990;2023-05-10T13:26:33;19.50;99.90
3330;DHT22;1677;49.576;10.990;2023-05-10T13:28:58;19.50;99.90
3330;DHT22;1677;49.576;10.990;2023-05-10T13:31:24;19.50;99.90
3330;DHT22;1677;49.576;10.990;2023-05-10T13:33:50;19.60;99.90
3330;DHT22;1677;49.576;10.990;2023-05-10T13:36:15;19.60;99.90
3330;DHT22;1677;49.576;10.990;2023-05-10T13:38:41;19.40;99.90
3330;DHT22;1677;49.576;10.990;2023-05-10T13:41:06;19.40;99.90
3330;DHT22;1677;49.576;10.990;2023-05-10T13:43:32;19.30;99.90
3330;DHT22;1677;49.576;10.990;2023-05-10T13:45:57;19.20;99.90
3330;DHT22;1677;49.576;10.990;2023-05-10T13:48:23;19.10;99.90
3330;DHT22;1677;49.576;10.990;2023-05-10T13:50:49;18.90;99.90
3330;DHT22;1677;49.576;10.990;2023-05-10T13:53:15;18.60;99.90
3330;DHT22;1677;49.576;10.990;2023-05-10T13:55:41;18.40;99.90
3330;DHT22;1677;49.576;10.990;2023-05-10T13:58:06;18.20;99.90
3330;DHT22;1677;49.576;10.990;2023-05-10T14:00:32;18.10;99.90
3330;DHT22;1677;49.576;10.990;2023-05-10T14:02:57;17.90;99.90
3330;DHT22;1677;49.576;10.990;2023-05-10T14:05:23;17.70;99.90
3330;DHT22;1677;49.576;10.990;2023-05-10T14:07:49;17.70;99.90
3330;DHT22;1677;49.576;10.990;2023-05-10T14:10:15;17.80;99.90
3330;DHT22;1677;49.576;10.990;2023-05-10T14:12:41;18.00;99.90
3330;DHT22;1677;49.576;10.990;2023-05-10T14:15:07;18.20;99.90
3330;DHT22;1677;49.576;10.990;2023-05-10T14:17:32;18.30;99.90
3330;DHT22;1677;49.576;10.990;2023-05-10T14:19:58;18.40;99.90
3330;DHT22;1677;49.576;10.990;2023-05-10T14:22:23;18.50;99.90
3330;DHT22;1677;49.576;10.990;2023-05-10T14:24:49;18.70;99.90
3330;DHT22;1677;49.576;10.990;2023-05-10T14:27:15;18.60;99.90
3330;DHT22;1677;49.576;10.990;2023-05-10T14:29:41;18.80;99.90
3330;DHT22;1677;49.576;10.990;2023-05-10T14:32:07;18.70;99.90
3330;DHT22;1677;49.576;10.990;2023-05-10T14:34:32;18.70;99.90
3330;DHT22;1677;49.576;10.990;2023-05-10T14:36:58;18.70;99.90
3330;DHT22;1677;49.576;10.990;2023-05-10T14:39:24;18.70;99.90
3330;DHT22;1677;49.576;10.990;2023-05-10T14:41:50;18.70;99.90
3330;DHT22;1677;49.576;10.990;2023-05-10T14:44:17;18.70;99.90
3330;DHT22;1677;49.576;10.990;2023-05-10T14:46:42;18.70;99.90
3330;DHT22;1677;49.576;10.990;2023-05-10T14:49:08;18.80;99.90
3330;DHT22;1677;49.576;10.990;2023-05-10T14:51:34;19.00;99.90
3330;DHT22;1677;49.576;10.990;2023-05-10T14:53:59;19.20;99.90
3330;DHT22;1677;49.576;10.990;2023-05-10T14:56:25;19.30;99.90
3330;DHT22;1677;49.576;10.990;2023-05-10T14:58:51;19.40;99.90
3330;DHT22;1677;49.576;10.990;2023-05-10T15:01:17;19.40;99.90
3330;DHT22;1677;49.576;10.990;2023-05-10T15:03:42;19.20;99.90
3330;DHT22;1677;49.576;10.990;2023-05-10T15:06:08;19.10;99.90
3330;DHT22;1677;49.576;10.990;2023-05-10T15:08:34;18.80;99.90
3330;DHT22;1677;49.576;10.990;2023-05-10T15:10:59;18.60;99.90
3330;DHT22;1677;49.576;10.990;2023-05-10T15:13:25;18.20;99.90
3330;DHT22;1677;49.576;10.990;2023-05-10T15:15:51;17.80;99.90
3330;DHT22;1677;49.576;10.990;2023-05-10T15:18:16;17.50;99.90
3330;DHT22;1677;49.576;10.990;2023-05-10T15:20:42;17.30;99.90
3330;DHT22;1677;49.576;10.990;2023-05-10T15:23:07;17.20;99.90
3330;DHT22;1677;49.576;10.990;2023-05-10T15:25:33;17.10;99.90
3330;DHT22;1677;49.576;10.990;2023-05-10T15:28:03;17.00;99.90
3330;DHT22;1677;49.576;10.990;2023-05-10T15:30:29;17.00;99.90
3330;DHT22;1677;49.576;10.990;2023-05-10T15:32:55;17.00;99.90
3330;DHT22;1677;49.576;10.990;2023-05-10T15:35:20;17.10;99.90
3330;DHT22;1677;49.576;10.990;2023-05-10T15:37:47;17.10;99.90
3330;DHT22;1677;49.576;10.990;2023-05-10T15:40:13;17.10;99.90
3330;DHT22;1677;49.576;10.990;2023-05-10T15:42:38;17.10;99.90
3330;DHT22;1677;49.576;10.990;2023-05-10T15:45:04;17.10;99.90
3330;DHT22;1677;49.576;10.990;2023-05-10T15:47:30;17.10;99.90
3330;DHT22;1677;49.576;10.990;2023-05-10T15:49:56;17.00;99.90
3330;DHT22;1677;49.576;10.990;2023-05-10T15:52:21;17.10;99.90
3330;DHT22;1677;49.576;10.990;2023-05-10T15:54:48;17.00;99.90
3330;DHT22;1677;49.576;10.990;2023-05-10T15:57:13;17.00;99.90
3330;DHT22;1677;49.576;10.990;2023-05-10T15:59:39;17.00;99.90
3330;DHT22;1677;49.576;10.990;2023-05-10T16:02:06;17.00;99.90
3330;DHT22;1677;49.576;10.990;2023-05-10T16:04:31;17.00;99.90
3330;DHT22;1677;49.576;10.990;2023-05-10T16:06:57;17.10;99.90
3330;DHT22;1677;49.576;10.990;2023-05-10T16:09:23;17.30;99.90
3330;DHT22;1677;49.576;10.990;2023-05-10T16:11:48;17.20;99.90
3330;DHT22;1677;49.576;10.990;2023-05-10T16:14:14;17.40;99.90
3330;DHT22;1677;49.576;10.990;2023-05-10T16:16:41;17.50;99.90
3330;DHT22;1677;49.576;10.990;2023-05-10T16:19:07;17.60;99.90
3330;DHT22;1677;49.576;10.990;2023-05-10T16:21:33;17.50;99.90